createdAt,value
2017-10-07T00:00:19.381Z,83.00
2017-10-07T00:02:49.142Z,82.80
2017-10-07T00:05:17.721Z,82.80
2017-10-07T00:07:46.368Z,82.90
2017-10-07T00:10:15.096Z,83.40
2017-10-07T00:12:44.098Z,82.60
2017-10-07T00:15:12.750Z,79.30
2017-10-07T00:17:41.482Z,76.20
2017-10-07T00:20:10.049Z,75.90
2017-10-07T00:22:38.656Z,75.50
2017-10-07T00:25:07.285Z,75.10
2017-10-07T00:27:35.872Z,74.50
2017-10-07T00:30:05.323Z,74.20
2017-10-07T00:32:34.842Z,74.80
2017-10-07T00:35:03.542Z,74.90
2017-10-07T00:37:32.197Z,74.00
2017-10-07T00:40:01.087Z,73.80
2017-10-07T00:42:30.064Z,73.80
2017-10-07T00:44:58.709Z,74.00
2017-10-07T00:47:27.543Z,74.10
2017-10-07T00:49:56.864Z,74.40
2017-10-07T00:52:25.559Z,74.30
2017-10-07T00:54:54.462Z,73.80
2017-10-07T00:57:23.710Z,72.90
2017-10-07T00:59:52.504Z,72.90
2017-10-07T01:02:21.283Z,73.00
2017-10-07T01:04:50.038Z,72.10
2017-10-07T01:07:18.857Z,71.80
2017-10-07T01:09:48.493Z,72.40
2017-10-07T01:12:17.464Z,72.40
2017-10-07T01:14:46.056Z,71.00
2017-10-07T01:17:14.807Z,70.50
2017-10-07T01:19:44.292Z,70.60
2017-10-07T01:22:13.083Z,70.60
2017-10-07T01:24:41.886Z,68.30
2017-10-07T01:27:11.536Z,69.00
2017-10-07T01:29:40.289Z,69.20
2017-10-07T01:32:09.052Z,68.30
2017-10-07T01:34:37.830Z,67.60
2017-10-07T01:37:06.584Z,68.00
2017-10-07T01:39:35.316Z,68.00
2017-10-07T01:42:05.013Z,67.30
2017-10-07T01:44:33.772Z,66.70
2017-10-07T01:47:02.753Z,66.80
2017-10-07T01:49:31.501Z,67.30
2017-10-07T01:52:01.582Z,68.20
2017-10-07T01:54:30.280Z,67.70
2017-10-07T01:56:59.088Z,67.80
2017-10-07T01:59:27.847Z,68.10
2017-10-07T02:01:56.548Z,68.20
2017-10-07T02:04:26.210Z,66.40
2017-10-07T02:06:54.845Z,66.40
2017-10-07T02:09:23.557Z,66.80
2017-10-07T02:11:52.211Z,67.40
2017-10-07T02:14:20.791Z,68.00
2017-10-07T02:16:49.561Z,68.30
2017-10-07T02:19:18.168Z,69.00
2017-10-07T02:21:46.740Z,69.90
2017-10-07T02:24:15.369Z,70.50
2017-10-07T02:26:44.842Z,70.00
2017-10-07T02:29:13.521Z,69.90
2017-10-07T02:31:42.282Z,70.20
2017-10-07T02:34:10.944Z,70.50
2017-10-07T02:36:39.534Z,70.40
2017-10-07T02:39:08.260Z,70.40
2017-10-07T02:41:37.055Z,70.10
2017-10-07T02:44:05.753Z,69.70
2017-10-07T02:46:34.362Z,69.20
2017-10-07T02:49:03.829Z,69.00
2017-10-07T02:51:32.530Z,69.00
2017-10-07T02:54:01.916Z,68.50
2017-10-07T02:56:30.532Z,68.60
2017-10-07T02:58:59.140Z,68.70
2017-10-07T03:01:28.526Z,69.20
2017-10-07T03:03:57.142Z,68.50
2017-10-07T03:06:26.504Z,68.70
2017-10-07T03:08:55.122Z,68.60
2017-10-07T03:11:23.775Z,65.50
2017-10-07T03:13:52.460Z,64.10
2017-10-07T03:16:21.147Z,62.80
2017-10-07T03:18:49.871Z,64.50
2017-10-07T03:21:18.445Z,65.10
2017-10-07T03:23:47.087Z,66.90
2017-10-07T03:26:15.651Z,67.10
2017-10-07T03:28:44.467Z,67.00
2017-10-07T03:31:13.112Z,67.10
2017-10-07T03:33:42.021Z,67.10
2017-10-07T03:36:10.647Z,66.30
2017-10-07T03:38:39.374Z,65.30
2017-10-07T03:41:08.994Z,64.80
2017-10-07T03:43:37.847Z,64.40
2017-10-07T03:46:06.862Z,63.60
2017-10-07T03:48:35.779Z,61.90
2017-10-07T03:51:04.364Z,60.10
2017-10-07T03:53:33.159Z,60.70
2017-10-07T03:56:01.770Z,60.60
2017-10-07T03:58:30.366Z,60.50
2017-10-07T04:00:59.862Z,60.90
2017-10-07T04:03:29.306Z,61.70
2017-10-07T04:05:58.749Z,61.90
2017-10-07T04:08:28.271Z,62.10
2017-10-07T04:10:58.367Z,60.10
2017-10-07T04:13:26.988Z,60.00
2017-10-07T04:15:55.768Z,59.80
2017-10-07T04:18:24.537Z,60.20
2017-10-07T04:20:53.162Z,59.90
2017-10-07T04:23:22.721Z,59.80
2017-10-07T04:25:51.447Z,59.80
2017-10-07T04:28:20.288Z,59.30
2017-10-07T04:30:49.007Z,58.90
2017-10-07T04:33:17.875Z,58.50
2017-10-07T04:35:46.535Z,57.80
2017-10-07T04:38:15.273Z,57.30
2017-10-07T04:40:43.884Z,57.10
2017-10-07T04:43:12.586Z,57.30
2017-10-07T04:45:41.347Z,57.40
2017-10-07T04:48:10.123Z,57.20
2017-10-07T04:50:38.962Z,57.10
2017-10-07T04:53:07.887Z,57.80
2017-10-07T04:55:36.535Z,58.00
2017-10-07T04:58:05.222Z,58.00
2017-10-07T05:00:34.990Z,57.90
2017-10-07T05:03:05.480Z,58.30
2017-10-07T05:05:34.891Z,58.80
2017-10-07T05:08:03.691Z,58.40
2017-10-07T05:10:32.379Z,58.80
2017-10-07T05:13:01.104Z,58.90
2017-10-07T05:15:29.853Z,58.90
2017-10-07T05:17:59.326Z,59.00
2017-10-07T05:20:28.000Z,59.00
2017-10-07T05:22:56.949Z,59.40
2017-10-07T05:25:25.625Z,59.60
2017-10-07T05:27:54.403Z,59.60
2017-10-07T05:30:23.056Z,60.00
2017-10-07T05:32:51.677Z,60.20
2017-10-07T05:35:21.077Z,60.80
2017-10-07T05:37:49.654Z,61.10
2017-10-07T05:40:18.278Z,59.30
2017-10-07T05:42:46.965Z,59.20
2017-10-07T05:45:15.626Z,59.60
2017-10-07T05:47:44.180Z,60.20
2017-10-07T05:50:12.894Z,59.90
2017-10-07T05:52:41.691Z,59.90
2017-10-07T05:55:10.648Z,59.60
2017-10-07T05:57:39.354Z,59.90
2017-10-07T06:00:08.971Z,60.10
2017-10-07T06:02:37.625Z,60.50
2017-10-07T06:05:06.245Z,60.30
2017-10-07T06:07:34.881Z,60.20
2017-10-07T06:10:03.622Z,60.20
2017-10-07T06:12:32.392Z,60.80
2017-10-07T06:15:01.027Z,58.50
2017-10-07T06:17:29.806Z,58.20
2017-10-07T06:19:58.635Z,58.00
2017-10-07T06:22:27.232Z,58.00
2017-10-07T06:24:58.690Z,57.70
2017-10-07T06:27:29.250Z,56.60
2017-10-07T06:29:58.431Z,56.10
2017-10-07T06:32:27.357Z,55.50
2017-10-07T06:34:56.406Z,54.80
2017-10-07T06:37:25.087Z,54.00
2017-10-07T06:39:53.685Z,54.70
2017-10-07T06:42:22.399Z,53.90
2017-10-07T06:44:52.283Z,54.00
2017-10-07T06:47:21.843Z,54.00
2017-10-07T06:49:50.489Z,53.30
2017-10-07T06:52:20.177Z,50.80
2017-10-07T06:54:48.796Z,51.40
2017-10-07T06:57:17.399Z,50.30
2017-10-07T06:59:46.474Z,50.10
2017-10-07T07:02:16.414Z,49.90
2017-10-07T07:04:45.324Z,50.20
2017-10-07T07:07:14.371Z,49.40
2017-10-07T07:09:43.232Z,48.40
2017-10-07T07:12:13.097Z,47.40
2017-10-07T07:14:42.221Z,47.40
2017-10-07T07:17:10.886Z,45.90
2017-10-07T07:19:39.712Z,44.50
2017-10-07T07:22:08.360Z,43.30
2017-10-07T07:24:38.014Z,40.70
2017-10-07T07:27:07.602Z,41.80
2017-10-07T07:29:36.290Z,42.50
2017-10-07T07:32:05.044Z,43.00
2017-10-07T07:34:33.855Z,42.80
2017-10-07T07:37:03.545Z,43.50
2017-10-07T07:39:32.239Z,43.60
2017-10-07T07:42:01.064Z,43.30
2017-10-07T07:44:29.818Z,44.00
2017-10-07T07:46:59.145Z,44.80
2017-10-07T07:49:27.866Z,44.90
2017-10-07T07:51:57.555Z,45.20
2017-10-07T07:54:28.876Z,45.70
2017-10-07T07:56:57.696Z,45.20
2017-10-07T07:59:27.611Z,45.80
2017-10-07T08:01:56.303Z,46.30
2017-10-07T08:04:26.849Z,46.80
2017-10-07T08:06:58.885Z,48.10
2017-10-07T08:09:30.693Z,48.60
2017-10-07T08:11:59.513Z,48.70
2017-10-07T08:14:28.266Z,48.90
2017-10-07T08:16:57.057Z,48.80
2017-10-07T08:19:27.761Z,48.20
2017-10-07T08:22:02.636Z,48.50
2017-10-07T08:24:32.926Z,49.40
2017-10-07T08:27:01.642Z,49.40
2017-10-07T08:29:32.163Z,48.50
2017-10-07T08:32:00.954Z,48.00
2017-10-07T08:34:30.581Z,48.30
2017-10-07T08:36:59.400Z,47.70
2017-10-07T08:39:28.094Z,47.40
2017-10-07T08:41:56.766Z,47.20
2017-10-07T08:44:25.990Z,47.50
2017-10-07T08:46:55.454Z,47.10
2017-10-07T08:49:25.175Z,46.60
2017-10-07T08:51:54.686Z,45.70
2017-10-07T08:54:24.222Z,45.40
2017-10-07T08:56:53.887Z,46.10
2017-10-07T08:59:22.900Z,45.50
2017-10-07T09:01:52.721Z,46.20
2017-10-07T09:04:21.915Z,46.20
2017-10-07T09:06:52.631Z,46.00
2017-10-07T09:09:21.325Z,45.90
2017-10-07T09:11:50.091Z,46.20
2017-10-07T09:14:19.524Z,46.70
2017-10-07T09:16:48.621Z,46.80
2017-10-07T09:19:18.556Z,46.70
2017-10-07T09:21:47.746Z,47.00
2017-10-07T09:24:16.773Z,46.90
2017-10-07T09:26:45.701Z,46.70
2017-10-07T09:29:14.542Z,46.50
2017-10-07T09:31:43.477Z,46.60
2017-10-07T09:34:13.024Z,47.40
2017-10-07T09:36:44.569Z,47.50
2017-10-07T09:39:13.354Z,46.70
2017-10-07T09:41:42.018Z,45.30
2017-10-07T09:44:11.086Z,45.80
2017-10-07T09:46:44.274Z,46.00
2017-10-07T09:49:13.941Z,43.70
2017-10-07T09:51:42.840Z,43.60
2017-10-07T09:54:12.931Z,43.00
2017-10-07T09:56:41.631Z,42.80
2017-10-07T09:59:10.561Z,42.70
2017-10-07T10:01:40.352Z,41.00
2017-10-07T10:04:14.785Z,42.00
2017-10-07T10:06:44.148Z,42.00
2017-10-07T10:09:12.938Z,42.00
2017-10-07T10:11:41.867Z,42.00
2017-10-07T10:14:10.791Z,41.80
2017-10-07T10:16:39.629Z,41.40
2017-10-07T10:19:08.476Z,40.60
2017-10-07T10:21:37.508Z,39.60
2017-10-07T10:24:07.628Z,40.40
2017-10-07T10:26:37.522Z,40.30
2017-10-07T10:29:06.563Z,40.70
2017-10-07T10:31:36.724Z,40.70
2017-10-07T10:34:05.646Z,40.50
2017-10-07T10:36:34.856Z,40.20
2017-10-07T10:39:04.834Z,39.30
2017-10-07T10:41:33.725Z,39.70
2017-10-07T10:44:03.339Z,40.80
2017-10-07T10:46:32.425Z,40.80
2017-10-07T10:49:01.430Z,41.20
2017-10-07T10:51:30.470Z,42.00
2017-10-07T10:53:59.513Z,41.20
2017-10-07T10:56:28.479Z,41.20
2017-10-07T10:58:57.494Z,41.10
2017-10-07T11:01:26.489Z,40.80
2017-10-07T11:03:55.459Z,40.90
2017-10-07T11:06:24.261Z,41.10
2017-10-07T11:08:53.726Z,41.20
2017-10-07T11:11:23.217Z,41.50
2017-10-07T11:13:51.991Z,41.50
2017-10-07T11:16:20.765Z,41.20
2017-10-07T11:18:50.544Z,41.00
2017-10-07T11:21:20.857Z,41.50
2017-10-07T11:23:50.753Z,41.50
2017-10-07T11:26:19.608Z,41.20
2017-10-07T11:28:48.379Z,41.70
2017-10-07T11:31:17.310Z,42.20
2017-10-07T11:33:46.744Z,42.30
2017-10-07T11:36:15.476Z,42.40
2017-10-07T11:38:45.387Z,42.10
2017-10-07T11:41:14.598Z,41.80
2017-10-07T11:43:43.490Z,42.40
2017-10-07T11:46:12.820Z,42.50
2017-10-07T11:48:41.563Z,42.80
2017-10-07T11:51:10.455Z,42.60
2017-10-07T11:53:39.899Z,43.00
2017-10-07T11:56:08.649Z,42.90
2017-10-07T11:58:37.371Z,43.10
2017-10-07T12:01:08.790Z,43.00
2017-10-07T12:03:38.063Z,43.10
2017-10-07T12:06:07.650Z,43.20
2017-10-07T12:08:36.557Z,43.30
2017-10-07T12:11:06.278Z,43.20
2017-10-07T12:13:35.440Z,43.20
2017-10-07T12:16:04.239Z,43.10
2017-10-07T12:18:33.076Z,43.30
2017-10-07T12:21:02.097Z,43.10
2017-10-07T12:23:31.038Z,43.30
2017-10-07T12:26:00.002Z,42.80
2017-10-07T12:28:30.144Z,42.20
2017-10-07T12:30:59.814Z,42.10
2017-10-07T12:33:28.821Z,42.10
2017-10-07T12:35:57.776Z,41.30
2017-10-07T12:38:26.588Z,41.30
2017-10-07T12:40:55.363Z,40.90
2017-10-07T12:43:25.068Z,36.80
2017-10-07T12:45:53.956Z,36.70
2017-10-07T12:48:23.099Z,35.10
2017-10-07T12:50:52.752Z,33.90
2017-10-07T12:53:21.980Z,34.30
2017-10-07T12:55:50.610Z,34.00
2017-10-07T12:58:19.995Z,33.30
2017-10-07T13:00:49.272Z,33.30
2017-10-07T13:03:18.485Z,33.40
2017-10-07T13:05:47.262Z,33.20
2017-10-07T13:08:16.203Z,32.60
2017-10-07T13:10:45.778Z,31.70
2017-10-07T13:13:14.515Z,31.60
2017-10-07T13:15:43.387Z,31.20
2017-10-07T13:18:12.067Z,30.90
2017-10-07T13:20:40.889Z,33.50
2017-10-07T13:23:11.082Z,34.10
2017-10-07T13:25:40.421Z,32.90
2017-10-07T13:28:09.153Z,33.60
2017-10-07T13:30:39.034Z,34.20
2017-10-07T13:33:07.753Z,33.40
2017-10-07T13:35:36.603Z,33.00
2017-10-07T13:38:05.804Z,33.80
2017-10-07T13:40:36.561Z,34.00
2017-10-07T13:43:06.194Z,34.50
2017-10-07T13:45:35.258Z,35.40
2017-10-07T13:48:05.297Z,37.50
2017-10-07T13:50:34.270Z,37.50
2017-10-07T13:53:03.685Z,39.10
2017-10-07T13:55:36.854Z,39.30
2017-10-07T13:58:07.230Z,41.30
2017-10-07T14:00:39.764Z,41.30
2017-10-07T14:03:09.214Z,42.60
2017-10-07T14:05:37.973Z,43.20
2017-10-07T14:08:07.739Z,43.90
2017-10-07T14:10:37.176Z,43.90
2017-10-07T14:13:06.090Z,43.20
2017-10-07T14:15:34.805Z,42.70
2017-10-07T14:18:03.778Z,42.30
2017-10-07T14:20:32.788Z,41.90
2017-10-07T14:23:05.053Z,42.60
2017-10-07T14:25:34.190Z,43.70
2017-10-07T14:28:04.060Z,44.80
2017-10-07T14:30:33.605Z,45.30
2017-10-07T14:33:03.907Z,45.60
2017-10-07T14:35:34.938Z,46.20
2017-10-07T14:40:42.672Z,46.80
2017-10-07T14:43:11.947Z,47.10
2017-10-07T14:45:42.239Z,46.90
2017-10-07T14:48:11.744Z,47.10
2017-10-07T14:50:48.469Z,47.90
2017-10-07T14:53:17.298Z,48.10
2017-10-07T14:55:47.005Z,48.70
2017-10-07T14:58:19.716Z,48.70
2017-10-07T15:00:50.810Z,49.00
2017-10-07T15:03:22.660Z,48.90
2017-10-07T15:05:57.985Z,49.10
2017-10-07T15:08:27.014Z,49.60
2017-10-07T15:10:55.969Z,49.40
2017-10-07T15:13:24.955Z,49.70
2017-10-07T15:15:53.927Z,50.00
2017-10-07T15:18:24.317Z,50.50
2017-10-07T15:20:54.133Z,50.40
2017-10-07T15:23:23.985Z,50.60
2017-10-07T15:25:53.285Z,51.00
2017-10-07T15:28:24.634Z,51.30
2017-10-07T15:30:57.013Z,51.20
2017-10-07T15:33:35.501Z,51.80
2017-10-07T15:36:08.475Z,51.80
2017-10-07T15:38:38.618Z,52.30
2017-10-07T15:41:08.440Z,52.20
2017-10-07T15:43:41.408Z,52.00
2017-10-07T15:46:12.756Z,52.20
2017-10-07T15:48:43.516Z,52.10
2017-10-07T15:51:13.038Z,52.50
2017-10-07T15:53:42.073Z,52.40
2017-10-07T15:56:11.286Z,52.80
2017-10-07T15:58:40.792Z,53.30
2017-10-07T16:01:10.288Z,52.70
2017-10-07T16:03:39.760Z,53.50
2017-10-07T16:06:12.743Z,53.70
2017-10-07T16:08:48.412Z,53.90
2017-10-07T16:11:17.800Z,53.90
2017-10-07T16:13:46.671Z,53.80
2017-10-07T16:16:17.076Z,54.00
2017-10-07T16:18:46.585Z,54.00
2017-10-07T16:21:16.388Z,54.10
2017-10-07T16:23:47.317Z,53.90
2017-10-07T16:26:18.869Z,54.60
2017-10-07T16:28:48.035Z,55.00
2017-10-07T16:31:18.389Z,54.90
2017-10-07T16:33:48.515Z,55.00
2017-10-07T16:36:17.669Z,54.50
2017-10-07T16:38:46.539Z,54.80
2017-10-07T16:41:16.754Z,54.70
2017-10-07T16:43:46.427Z,55.30
2017-10-07T16:46:15.605Z,55.30
2017-10-07T16:48:44.859Z,55.50
2017-10-07T16:51:14.448Z,55.40
2017-10-07T16:53:45.764Z,55.70
2017-10-07T16:56:16.622Z,56.00
2017-10-07T16:58:46.258Z,56.10
2017-10-07T17:01:15.809Z,56.30
2017-10-07T17:03:45.148Z,56.40
2017-10-07T17:06:14.321Z,56.50
2017-10-07T17:08:43.157Z,56.50
2017-10-07T17:11:11.962Z,56.70
2017-10-07T17:13:40.981Z,56.80
2017-10-07T17:16:09.893Z,57.30
2017-10-07T17:18:38.811Z,56.90
2017-10-07T17:21:08.281Z,57.20
2017-10-07T17:23:37.303Z,57.40
2017-10-07T17:26:06.807Z,57.90
2017-10-07T17:28:36.174Z,58.10
2017-10-07T17:31:05.407Z,58.30
2017-10-07T17:33:34.986Z,58.50
2017-10-07T17:36:04.697Z,58.60
2017-10-07T17:38:35.231Z,58.50
2017-10-07T17:41:04.128Z,58.30
2017-10-07T17:43:33.100Z,58.40
2017-10-07T17:46:04.221Z,58.30
2017-10-07T17:48:35.921Z,58.50
2017-10-07T17:51:04.890Z,58.80
2017-10-07T17:53:34.449Z,58.50
2017-10-07T17:56:04.275Z,58.40
2017-10-07T17:58:32.978Z,58.50
2017-10-07T18:01:02.110Z,58.30
2017-10-07T18:03:31.438Z,58.30
2017-10-07T18:06:02.028Z,58.50
2017-10-07T18:08:32.230Z,58.40
2017-10-07T18:11:01.839Z,58.50
2017-10-07T18:13:31.530Z,58.30
2017-10-07T18:16:01.151Z,58.20
2017-10-07T18:18:30.254Z,58.40
2017-10-07T18:21:00.051Z,58.30
2017-10-07T18:23:30.776Z,58.30
2017-10-07T18:26:01.007Z,58.30
2017-10-07T18:28:29.853Z,58.30
2017-10-07T18:30:58.772Z,58.30
2017-10-07T18:33:27.560Z,58.50
2017-10-07T18:35:56.502Z,58.60
2017-10-07T18:38:25.598Z,58.50
2017-10-07T18:40:55.311Z,58.70
2017-10-07T18:43:25.051Z,58.40
2017-10-07T18:45:53.853Z,58.40
2017-10-07T18:48:23.504Z,58.70
2017-10-07T18:50:52.471Z,59.00
2017-10-07T18:53:21.446Z,59.40
2017-10-07T18:55:51.144Z,59.40
2017-10-07T18:58:20.002Z,59.40
2017-10-07T19:00:49.002Z,59.70
2017-10-07T19:03:19.410Z,59.80
2017-10-07T19:05:48.148Z,60.00
2017-10-07T19:08:17.157Z,60.20
2017-10-07T19:10:46.973Z,60.30
2017-10-07T19:13:16.798Z,60.30
2017-10-07T19:15:46.557Z,60.40
2017-10-07T19:18:15.600Z,60.40
2017-10-07T19:20:44.657Z,60.60
2017-10-07T19:23:13.662Z,60.90
2017-10-07T19:25:42.421Z,61.10
2017-10-07T19:28:11.230Z,61.30
2017-10-07T19:30:39.876Z,61.40
2017-10-07T19:33:09.592Z,61.50
2017-10-07T19:35:39.333Z,61.40
2017-10-07T19:38:09.790Z,61.50
2017-10-07T19:40:38.496Z,61.60
2017-10-07T19:43:07.170Z,61.50
2017-10-07T19:45:36.638Z,61.40
2017-10-07T19:48:05.826Z,61.40
2017-10-07T21:12:33.699Z,61.80
2017-10-07T21:15:03.353Z,63.40
2017-10-07T21:17:32.032Z,63.40
2017-10-07T21:20:00.674Z,63.60
2017-10-07T21:22:29.404Z,63.80
2017-10-07T21:24:58.151Z,64.10
2017-10-07T21:27:27.602Z,64.10
2017-10-07T21:29:56.237Z,64.10
2017-10-07T21:32:25.668Z,64.60
2017-10-07T21:34:54.344Z,64.40
2017-10-07T21:37:23.056Z,64.60
2017-10-07T21:39:51.827Z,64.60
2017-10-07T21:42:21.451Z,64.60
2017-10-07T21:44:50.460Z,64.70
2017-10-07T21:47:19.284Z,67.00
2017-10-07T21:49:48.920Z,66.20
2017-10-07T21:52:18.522Z,66.10
2017-10-07T21:54:47.984Z,65.70
2017-10-07T21:57:17.534Z,65.70
2017-10-07T21:59:46.155Z,65.60
2017-10-07T22:02:14.800Z,65.70
2017-10-07T22:04:43.648Z,65.50
2017-10-07T22:07:12.388Z,65.60
2017-10-07T22:09:41.021Z,65.50
2017-10-07T22:12:09.737Z,65.50
2017-10-07T22:14:38.966Z,65.40
2017-10-07T22:17:07.999Z,65.60
2017-10-07T22:19:38.595Z,65.50
2017-10-07T22:22:09.225Z,65.50
2017-10-07T22:24:38.145Z,65.50
2017-10-07T22:27:09.056Z,65.50
2017-10-07T22:29:37.709Z,65.40
2017-10-07T22:32:07.098Z,65.60
2017-10-07T22:34:36.034Z,65.50
2017-10-07T22:37:05.456Z,65.40
2017-10-07T22:39:34.147Z,65.40
2017-10-07T22:42:03.940Z,65.50
2017-10-07T22:44:33.449Z,65.60
2017-10-07T22:47:03.018Z,65.70
2017-10-07T22:49:32.631Z,65.80
2017-10-07T22:52:01.421Z,65.80
2017-10-07T22:54:31.236Z,66.50
2017-10-07T22:57:00.285Z,66.10
2017-10-07T22:59:29.048Z,66.10
2017-10-07T23:01:58.319Z,66.20
2017-10-07T23:04:27.275Z,66.20
2017-10-07T23:06:56.966Z,66.30
2017-10-07T23:09:26.784Z,66.50
2017-10-07T23:11:55.928Z,66.40
2017-10-07T23:14:24.876Z,66.50
2017-10-07T23:16:53.956Z,66.60
2017-10-07T23:19:22.878Z,66.80
2017-10-07T23:21:52.723Z,66.70
2017-10-07T23:24:21.543Z,66.70
2017-10-07T23:26:50.433Z,66.80
2017-10-07T23:29:20.145Z,66.80
2017-10-07T23:31:49.303Z,66.80
2017-10-07T23:34:19.086Z,66.90
2017-10-07T23:36:47.901Z,66.90
2017-10-07T23:39:16.922Z,67.10
2017-10-07T23:41:45.705Z,67.10
2017-10-07T23:44:14.422Z,67.10
2017-10-07T23:46:43.255Z,67.20
2017-10-07T23:49:12.766Z,67.20
2017-10-07T23:51:41.410Z,67.10
2017-10-07T23:54:09.995Z,67.30
2017-10-07T23:56:39.540Z,67.20
2017-10-07T23:59:09.779Z,67.50
